Virtual Norwegian is not affiliated with Norwegian Air Shuttle in any way.
If you are looking for the real "Norwegian", or you wish to book Norwegian flights, please visit Norwegian.com


We use cookies to ensure you get the best experience on our website.   ACCEPT

EPWA - WAW - Warsaw (Okecie)

General Info Alternate Airport
ICAO: EPWA Elevation: 362 ft ICAO: EPGD
IATA: WAW Country: Poland IATA: GDN
City: Warsaw Charts: Log in to view charts City: Gdansk
Name: Okecie Hub: No Name Lech Walesa
General Info
ICAO: EPWA
IATA: WAW
City: Warsaw
Name: Okecie
Elevation: 362 ft
Country: Poland
Charts: Log in to view charts
Hub: No
 
Alternate Airport
ICAO: EPGD
IATA: GDN
City: Gdansk
Name: Lech Walesa

Weather
261230Z 10010KT CAVOK 21/14 Q1029 NOSIG
Weather
261230Z 10010KT CAVOK 21/14 Q1029 NOSIG

Runway Info
11
Length ILS/LOC Course
2800 m 109.90 109
15
Length ILS/LOC Heading
3690 m N/A 152
29
Length ILS/LOC Heading
2800 m N/A 295
33
Length ILS/LOC Course
3690 m 110.30 327

NOTAMs
NOTAMs currently unavailable.
NOTAMs
NOTAMs currently unavailable

Route map
Airport
Airport (hub)